sensor_id;sensor_type;location;lat;lon;timestamp;pressure;altitude;pressure_sealevel;temperature;humidity
46087;BME280;31824;49.648;8.640;2023-04-22T00:00:39;99642.03;;;12.49;100.00
46087;BME280;31824;49.648;8.640;2023-04-22T00:03:41;99650.50;;;12.45;100.00
46087;BME280;31824;49.648;8.640;2023-04-22T00:06:47;99642.72;;;12.46;100.00
46087;BME280;31824;49.648;8.640;2023-04-22T00:09:48;99645.13;;;12.43;100.00
46087;BME280;31824;49.648;8.640;2023-04-22T00:12:50;99635.47;;;12.32;100.00
46087;BME280;31824;49.648;8.640;2023-04-22T00:15:52;99635.16;;;12.39;100.00
46087;BME280;31824;49.648;8.640;2023-04-22T00:18:54;99632.16;;;12.35;100.00
46087;BME280;31824;49.648;8.640;2023-04-22T00:21:57;99636.75;;;12.37;100.00
46087;BME280;31824;49.648;8.640;2023-04-22T00:24:59;99641.59;;;12.66;100.00
46087;BME280;31824;49.648;8.640;2023-04-22T00:28:01;99628.06;;;12.74;100.00
46087;BME280;31824;49.648;8.640;2023-04-22T00:31:04;99620.00;;;13.20;100.00
46087;BME280;31824;49.648;8.640;2023-04-22T00:34:06;99626.56;;;13.50;100.00
46087;BME280;31824;49.648;8.640;2023-04-22T00:37:09;99627.91;;;13.20;100.00
46087;BME280;31824;49.648;8.640;2023-04-22T00:40:31;99621.38;;;13.14;100.00
46087;BME280;31824;49.648;8.640;2023-04-22T00:43:33;99617.50;;;12.97;100.00
46087;BME280;31824;49.648;8.640;2023-04-22T00:46:36;99627.84;;;12.82;100.00
46087;BME280;31824;49.648;8.640;2023-04-22T00:49:38;99620.72;;;12.70;100.00
46087;BME280;31824;49.648;8.640;2023-04-22T00:52:42;99626.25;;;12.61;100.00
46087;BME280;31824;49.648;8.640;2023-04-22T00:55:44;99627.25;;;12.39;100.00
46087;BME280;31824;49.648;8.640;2023-04-22T00:58:46;99628.03;;;12.38;100.00
46087;BME280;31824;49.648;8.640;2023-04-22T01:01:47;99620.94;;;12.25;100.00
46087;BME280;31824;49.648;8.640;2023-04-22T01:04:51;99620.00;;;12.25;100.00
46087;BME280;31824;49.648;8.640;2023-04-22T01:07:56;99609.94;;;11.85;100.00
46087;BME280;31824;49.648;8.640;2023-04-22T01:10:59;99618.69;;;11.96;100.00
46087;BME280;31824;49.648;8.640;2023-04-22T01:14:01;99617.59;;;11.82;100.00
46087;BME280;31824;49.648;8.640;2023-04-22T01:17:03;99617.09;;;11.76;100.00
46087;BME280;31824;49.648;8.640;2023-04-22T01:20:06;99621.47;;;11.75;100.00
46087;BME280;31824;49.648;8.640;2023-04-22T01:23:16;99624.09;;;11.75;100.00
46087;BME280;31824;49.648;8.640;2023-04-22T01:26:19;99631.94;;;11.63;100.00
46087;BME280;31824;49.648;8.640;2023-04-22T01:29:21;99625.25;;;11.57;100.00
46087;BME280;31824;49.648;8.640;2023-04-22T01:32:23;99626.47;;;11.50;100.00
46087;BME280;31824;49.648;8.640;2023-04-22T01:35:25;99622.31;;;11.64;100.00
46087;BME280;31824;49.648;8.640;2023-04-22T01:38:29;99622.84;;;11.48;100.00
46087;BME280;31824;49.648;8.640;2023-04-22T01:41:34;99621.53;;;11.43;100.00
46087;BME280;31824;49.648;8.640;2023-04-22T01:44:36;99627.28;;;11.27;100.00
46087;BME280;31824;49.648;8.640;2023-04-22T01:47:38;99619.47;;;11.17;100.00
46087;BME280;31824;49.648;8.640;2023-04-22T01:50:40;99629.59;;;11.12;100.00
46087;BME280;31824;49.648;8.640;2023-04-22T01:53:43;99628.06;;;11.26;100.00
46087;BME280;31824;49.648;8.640;2023-04-22T01:56:49;99635.94;;;11.26;100.00
46087;BME280;31824;49.648;8.640;2023-04-22T01:59:51;99635.06;;;11.25;100.00
46087;BME280;31824;49.648;8.640;2023-04-22T02:02:55;99632.50;;;11.37;100.00
46087;BME280;31824;49.648;8.640;2023-04-22T02:05:58;99631.09;;;11.30;100.00
46087;BME280;31824;49.648;8.640;2023-04-22T02:09:02;99640.72;;;11.20;100.00
46087;BME280;31824;49.648;8.640;2023-04-22T02:12:04;99649.28;;;11.17;100.00
46087;BME280;31824;49.648;8.640;2023-04-22T02:15:07;99650.75;;;11.13;100.00
46087;BME280;31824;49.648;8.640;2023-04-22T02:18:10;99641.28;;;11.15;100.00
46087;BME280;31824;49.648;8.640;2023-04-22T02:21:11;99654.31;;;11.14;100.00
46087;BME280;31824;49.648;8.640;2023-04-22T02:24:16;99650.50;;;11.10;100.00
46087;BME280;31824;49.648;8.640;2023-04-22T02:27:18;99653.56;;;11.05;100.00
46087;BME280;31824;49.648;8.640;2023-04-22T02:30:21;99647.09;;;11.11;100.00
46087;BME280;31824;49.648;8.640;2023-04-22T02:33:23;99628.56;;;11.32;100.00
46087;BME280;31824;49.648;8.640;2023-04-22T02:36:25;99634.34;;;11.38;100.00
46087;BME280;31824;49.648;8.640;2023-04-22T02:39:30;99634.69;;;11.43;100.00
46087;BME280;31824;49.648;8.640;2023-04-22T02:42:32;99628.56;;;11.54;100.00
46087;BME280;31824;49.648;8.640;2023-04-22T02:45:35;99626.72;;;11.31;100.00
46087;BME280;31824;49.648;8.640;2023-04-22T02:48:37;99631.00;;;11.19;100.00
46087;BME280;31824;49.648;8.640;2023-04-22T02:51:39;99639.19;;;11.11;100.00
46087;BME280;31824;49.648;8.640;2023-04-22T02:54:42;99640.28;;;11.03;100.00
46087;BME280;31824;49.648;8.640;2023-04-22T02:57:44;99642.53;;;10.98;100.00
46087;BME280;31824;49.648;8.640;2023-04-22T03:00:46;99645.44;;;10.91;100.00
46087;BME280;31824;49.648;8.640;2023-04-22T03:03:48;99653.88;;;10.87;100.00
46087;BME280;31824;49.648;8.640;2023-04-22T03:06:55;99649.81;;;10.80;100.00
46087;BME280;31824;49.648;8.640;2023-04-22T03:09:59;99658.25;;;10.76;100.00
46087;BME280;31824;49.648;8.640;2023-04-22T03:13:01;99662.47;;;10.74;100.00
46087;BME280;31824;49.648;8.640;2023-04-22T03:16:03;99656.69;;;10.68;100.00
46087;BME280;31824;49.648;8.640;2023-04-22T03:19:06;99657.63;;;10.58;100.00
46087;BME280;31824;49.648;8.640;2023-04-22T03:22:08;99659.44;;;10.70;100.00
46087;BME280;31824;49.648;8.640;2023-04-22T03:25:11;99665.53;;;10.58;100.00
46087;BME280;31824;49.648;8.640;2023-04-22T03:28:14;99670.00;;;10.49;100.00
46087;BME280;31824;49.648;8.640;2023-04-22T03:31:16;99663.97;;;10.40;100.00
46087;BME280;31824;49.648;8.640;2023-04-22T03:34:18;99663.59;;;10.35;100.00
46087;BME280;31824;49.648;8.640;2023-04-22T03:37:20;99659.63;;;10.30;100.00
46087;BME280;31824;49.648;8.640;2023-04-22T03:40:23;99656.34;;;10.33;100.00
46087;BME280;31824;49.648;8.640;2023-04-22T03:43:25;99656.22;;;10.31;100.00
46087;BME280;31824;49.648;8.640;2023-04-22T03:46:35;99649.75;;;10.17;100.00
46087;BME280;31824;49.648;8.640;2023-04-22T03:49:48;99650.44;;;10.14;100.00
46087;BME280;31824;49.648;8.640;2023-04-22T03:52:50;99649.91;;;10.08;100.00
46087;BME280;31824;49.648;8.640;2023-04-22T03:55:55;99637.97;;;10.12;100.00
46087;BME280;31824;49.648;8.640;2023-04-22T03:58:58;99640.47;;;10.00;100.00
46087;BME280;31824;49.648;8.640;2023-04-22T04:02:00;99639.41;;;9.98;100.00
46087;BME280;31824;49.648;8.640;2023-04-22T04:05:03;99634.97;;;9.97;100.00
46087;BME280;31824;49.648;8.640;2023-04-22T04:08:06;99634.84;;;9.95;100.00
46087;BME280;31824;49.648;8.640;2023-04-22T04:11:09;99631.53;;;9.98;100.00
46087;BME280;31824;49.648;8.640;2023-04-22T04:14:12;99631.53;;;9.98;100.00
46087;BME280;31824;49.648;8.640;2023-04-22T04:17:20;99622.38;;;9.93;100.00
46087;BME280;31824;49.648;8.640;2023-04-22T04:20:26;99624.47;;;9.87;100.00
46087;BME280;31824;49.648;8.640;2023-04-22T04:23:29;99632.06;;;9.73;100.00
46087;BME280;31824;49.648;8.640;2023-04-22T04:26:33;99632.31;;;9.66;100.00
46087;BME280;31824;49.648;8.640;2023-04-22T04:29:58;99622.34;;;9.62;100.00
46087;BME280;31824;49.648;8.640;2023-04-22T04:33:20;99618.13;;;9.64;100.00
46087;BME280;31824;49.648;8.640;2023-04-22T04:36:21;99621.03;;;9.67;100.00
46087;BME280;31824;49.648;8.640;2023-04-22T04:39:26;99624.41;;;9.56;100.00
46087;BME280;31824;49.648;8.640;2023-04-22T04:42:32;99620.09;;;9.67;100.00
46087;BME280;31824;49.648;8.640;2023-04-22T04:45:38;99620.38;;;9.80;100.00
46087;BME280;31824;49.648;8.640;2023-04-22T04:48:41;99619.47;;;9.79;100.00
46087;BME280;31824;49.648;8.640;2023-04-22T04:51:43;99606.25;;;9.78;100.00
46087;BME280;31824;49.648;8.640;2023-04-22T04:54:45;99602.28;;;9.83;100.00
46087;BME280;31824;49.648;8.640;2023-04-22T04:57:49;99608.06;;;9.89;100.00
46087;BME280;31824;49.648;8.640;2023-04-22T05:00:51;99615.94;;;9.89;100.00
46087;BME280;31824;49.648;8.640;2023-04-22T05:03:53;99619.47;;;9.90;100.00
46087;BME280;31824;49.648;8.640;2023-04-22T05:06:55;99619.59;;;9.81;100.00
46087;BME280;31824;49.648;8.640;2023-04-22T05:09:58;99619.09;;;9.85;100.00
46087;BME280;31824;49.648;8.640;2023-04-22T05:13:02;99620.94;;;9.86;100.00
46087;BME280;31824;49.648;8.640;2023-04-22T05:16:06;99626.03;;;10.05;100.00
46087;BME280;31824;49.648;8.640;2023-04-22T05:19:09;99623.66;;;10.08;100.00
46087;BME280;31824;49.648;8.640;2023-04-22T05:22:11;99626.66;;;10.13;100.00
46087;BME280;31824;49.648;8.640;2023-04-22T05:25:13;99639.81;;;10.34;100.00
46087;BME280;31824;49.648;8.640;2023-04-22T05:28:25;99650.97;;;10.31;100.00
46087;BME280;31824;49.648;8.640;2023-04-22T05:31:30;99649.66;;;10.46;100.00
46087;BME280;31824;49.648;8.640;2023-04-22T05:34:32;99662.00;;;10.47;100.00
46087;BME280;31824;49.648;8.640;2023-04-22T05:37:34;99661.94;;;10.58;100.00
46087;BME280;31824;49.648;8.640;2023-04-22T05:40:36;99658.41;;;10.57;100.00
46087;BME280;31824;49.648;8.640;2023-04-22T05:43:40;99659.88;;;10.54;100.00
46087;BME280;31824;49.648;8.640;2023-04-22T05:46:49;99661.03;;;10.57;100.00
46087;BME280;31824;49.648;8.640;2023-04-22T05:49:53;99669.88;;;10.47;100.00
46087;BME280;31824;49.648;8.640;2023-04-22T05:53:13;99667.75;;;10.54;100.00
46087;BME280;31824;49.648;8.640;2023-04-22T05:56:16;99665.75;;;10.61;100.00
46087;BME280;31824;49.648;8.640;2023-04-22T05:59:19;99680.63;;;10.61;100.00
46087;BME280;31824;49.648;8.640;2023-04-22T06:02:22;99671.44;;;10.56;100.00
46087;BME280;31824;49.648;8.640;2023-04-22T06:05:24;99663.91;;;10.60;100.00
46087;BME280;31824;49.648;8.640;2023-04-22T06:08:26;99669.28;;;10.62;100.00
46087;BME280;31824;49.648;8.640;2023-04-22T06:11:28;99684.41;;;10.64;100.00
46087;BME280;31824;49.648;8.640;2023-04-22T06:14:31;99687.56;;;10.60;100.00
46087;BME280;31824;49.648;8.640;2023-04-22T06:17:33;99700.03;;;10.63;100.00
46087;BME280;31824;49.648;8.640;2023-04-22T06:20:35;99715.19;;;10.55;100.00
46087;BME280;31824;49.648;8.640;2023-04-22T06:23:37;99712.00;;;10.49;100.00
46087;BME280;31824;49.648;8.640;2023-04-22T06:26:39;99718.59;;;10.54;100.00
46087;BME280;31824;49.648;8.640;2023-04-22T06:29:42;99703.19;;;10.59;100.00
46087;BME280;31824;49.648;8.640;2023-04-22T06:32:44;99707.13;;;10.64;100.00
46087;BME280;31824;49.648;8.640;2023-04-22T06:35:46;99705.41;;;10.64;100.00
46087;BME280;31824;49.648;8.640;2023-04-22T06:38:48;99688.03;;;10.77;100.00
46087;BME280;31824;49.648;8.640;2023-04-22T06:42:08;99691.97;;;10.82;100.00
46087;BME280;31824;49.648;8.640;2023-04-22T06:45:34;99688.91;;;10.98;100.00
46087;BME280;31824;49.648;8.640;2023-04-22T06:49:03;99690.59;;;11.08;100.00
46087;BME280;31824;49.648;8.640;2023-04-22T06:52:33;99683.66;;;11.08;100.00
46087;BME280;31824;49.648;8.640;2023-04-22T06:55:36;99680.41;;;11.23;100.00
46087;BME280;31824;49.648;8.640;2023-04-22T06:58:38;99677.56;;;11.42;100.00
46087;BME280;31824;49.648;8.640;2023-04-22T07:01:41;99667.22;;;11.55;100.00
46087;BME280;31824;49.648;8.640;2023-04-22T07:04:43;99663.97;;;11.47;100.00
46087;BME280;31824;49.648;8.640;2023-04-22T07:07:45;99663.16;;;11.59;100.00
46087;BME280;31824;49.648;8.640;2023-04-22T07:10:52;99657.13;;;11.72;100.00
46087;BME280;31824;49.648;8.640;2023-04-22T07:14:12;99652.47;;;12.02;100.00
46087;BME280;31824;49.648;8.640;2023-04-22T07:17:15;99643.88;;;12.50;100.00
46087;BME280;31824;49.648;8.640;2023-04-22T07:20:20;99657.19;;;12.63;100.00
46087;BME280;31824;49.648;8.640;2023-04-22T07:23:22;99646.56;;;13.23;100.00
46087;BME280;31824;49.648;8.640;2023-04-22T07:26:23;99653.75;;;13.49;100.00
46087;BME280;31824;49.648;8.640;2023-04-22T07:29:26;99647.84;;;13.28;100.00
46087;BME280;31824;49.648;8.640;2023-04-22T07:32:29;99644.84;;;13.47;100.00
46087;BME280;31824;49.648;8.640;2023-04-22T07:35:31;99644.59;;;13.81;100.00
46087;BME280;31824;49.648;8.640;2023-04-22T07:38:33;99651.09;;;14.11;100.00
46087;BME280;31824;49.648;8.640;2023-04-22T07:41:35;99647.53;;;14.36;100.00
46087;BME280;31824;49.648;8.640;2023-04-22T07:44:36;99644.94;;;14.63;100.00
46087;BME280;31824;49.648;8.640;2023-04-22T07:47:41;99638.72;;;14.62;100.00
46087;BME280;31824;49.648;8.640;2023-04-22T07:50:43;99641.00;;;14.83;100.00
46087;BME280;31824;49.648;8.640;2023-04-22T07:53:45;99634.84;;;15.11;100.00
46087;BME280;31824;49.648;8.640;2023-04-22T07:56:47;99630.78;;;15.29;100.00
46087;BME280;31824;49.648;8.640;2023-04-22T07:59:48;99630.59;;;15.13;100.00
46087;BME280;31824;49.648;8.640;2023-04-22T08:02:52;99635.97;;;15.28;100.00
46087;BME280;31824;49.648;8.640;2023-04-22T08:05:54;99638.34;;;15.51;100.00
46087;BME280;31824;49.648;8.640;2023-04-22T08:08:58;99640.19;;;15.52;100.00
46087;BME280;31824;49.648;8.640;2023-04-22T08:12:00;99632.06;;;15.78;100.00
46087;BME280;31824;49.648;8.640;2023-04-22T08:15:03;99636.22;;;15.88;100.00
46087;BME280;31824;49.648;8.640;2023-04-22T08:18:07;99633.59;;;15.88;100.00
46087;BME280;31824;49.648;8.640;2023-04-22T08:21:09;99641.19;;;16.11;100.00
46087;BME280;31824;49.648;8.640;2023-04-22T08:24:11;99635.03;;;16.56;100.00
46087;BME280;31824;49.648;8.640;2023-04-22T08:27:13;99635.38;;;16.62;100.00
46087;BME280;31824;49.648;8.640;2023-04-22T08:30:15;99640.88;;;16.65;100.00
46087;BME280;31824;49.648;8.640;2023-04-22T08:33:18;99643.44;;;16.78;100.00
46087;BME280;31824;49.648;8.640;2023-04-22T08:36:20;99640.41;;;17.02;100.00
46087;BME280;31824;49.648;8.640;2023-04-22T08:39:24;99643.13;;;16.88;100.00
46087;BME280;31824;49.648;8.640;2023-04-22T08:42:26;99639.94;;;17.09;100.00
46087;BME280;31824;49.648;8.640;2023-04-22T08:45:48;99634.44;;;17.06;100.00
46087;BME280;31824;49.648;8.640;2023-04-22T08:48:53;99632.75;;;17.54;100.00
46087;BME280;31824;49.648;8.640;2023-04-22T08:51:56;99631.06;;;17.89;100.00
46087;BME280;31824;49.648;8.640;2023-04-22T08:54:58;99637.41;;;17.75;100.00
46087;BME280;31824;49.648;8.640;2023-04-22T08:58:00;99632.34;;;17.80;100.00
46087;BME280;31824;49.648;8.640;2023-04-22T09:01:05;99632.00;;;17.57;100.00
46087;BME280;31824;49.648;8.640;2023-04-22T09:04:09;99624.59;;;17.51;100.00
46087;BME280;31824;49.648;8.640;2023-04-22T09:07:18;99613.81;;;17.48;100.00
46087;BME280;31824;49.648;8.640;2023-04-22T09:10:21;99625.28;;;17.80;100.00
46087;BME280;31824;49.648;8.640;2023-04-22T09:13:24;99619.97;;;17.80;100.00
46087;BME280;31824;49.648;8.640;2023-04-22T09:16:28;99621.56;;;18.10;100.00
46087;BME280;31824;49.648;8.640;2023-04-22T09:19:32;99616.28;;;18.28;100.00
46087;BME280;31824;49.648;8.640;2023-04-22T09:22:40;99612.06;;;18.66;100.00
46087;BME280;31824;49.648;8.640;2023-04-22T09:25:43;99609.31;;;18.82;100.00
46087;BME280;31824;49.648;8.640;2023-04-22T09:28:50;99605.94;;;18.68;100.00
46087;BME280;31824;49.648;8.640;2023-04-22T09:31:52;99603.25;;;18.85;100.00
46087;BME280;31824;49.648;8.640;2023-04-22T09:34:55;99604.97;;;18.66;100.00
46087;BME280;31824;49.648;8.640;2023-04-22T09:37:59;99607.84;;;18.71;100.00
46087;BME280;31824;49.648;8.640;2023-04-22T09:41:07;99600.47;;;19.00;100.00
46087;BME280;31824;49.648;8.640;2023-04-22T09:44:13;99607.00;;;18.88;100.00
46087;BME280;31824;49.648;8.640;2023-04-22T09:47:16;99608.09;;;18.76;100.00
46087;BME280;31824;49.648;8.640;2023-04-22T09:50:21;99617.75;;;18.73;100.00
46087;BME280;31824;49.648;8.640;2023-04-22T09:53:24;99607.13;;;18.92;100.00
46087;BME280;31824;49.648;8.640;2023-04-22T09:56:43;99599.38;;;18.96;100.00
46087;BME280;31824;49.648;8.640;2023-04-22T09:59:49;99605.22;;;19.45;100.00
46087;BME280;31824;49.648;8.640;2023-04-22T10:02:52;99593.63;;;19.62;100.00
46087;BME280;31824;49.648;8.640;2023-04-22T10:05:55;99591.56;;;19.37;100.00
46087;BME280;31824;49.648;8.640;2023-04-22T10:08:57;99595.38;;;19.62;100.00
46087;BME280;31824;49.648;8.640;2023-04-22T10:12:00;99590.75;;;19.57;100.00
46087;BME280;31824;49.648;8.640;2023-04-22T10:15:06;99586.34;;;19.78;100.00
46087;BME280;31824;49.648;8.640;2023-04-22T10:18:11;99596.19;;;19.98;100.00
46087;BME280;31824;49.648;8.640;2023-04-22T10:21:16;99586.06;;;20.51;100.00
46087;BME280;31824;49.648;8.640;2023-04-22T10:24:19;99591.28;;;20.48;100.00
46087;BME280;31824;49.648;8.640;2023-04-22T10:27:21;99587.59;;;20.25;100.00
46087;BME280;31824;49.648;8.640;2023-04-22T10:30:27;99590.09;;;20.41;100.00
46087;BME280;31824;49.648;8.640;2023-04-22T10:33:36;99589.22;;;20.42;100.00
46087;BME280;31824;49.648;8.640;2023-04-22T10:36:55;99593.88;;;20.89;100.00
46087;BME280;31824;49.648;8.640;2023-04-22T10:40:05;99585.00;;;20.90;100.00
46087;BME280;31824;49.648;8.640;2023-04-22T10:43:11;99586.19;;;21.19;100.00
46087;BME280;31824;49.648;8.640;2023-04-22T10:50:24;99583.75;;;21.48;100.00
46087;BME280;31824;49.648;8.640;2023-04-22T10:53:35;99575.38;;;20.94;100.00
46087;BME280;31824;49.648;8.640;2023-04-22T10:56:59;99577.69;;;21.52;100.00
46087;BME280;31824;49.648;8.640;2023-04-22T11:03:52;99573.97;;;21.71;100.00
46087;BME280;31824;49.648;8.640;2023-04-22T11:07:12;99582.50;;;21.61;100.00
46087;BME280;31824;49.648;8.640;2023-04-22T11:13:53;99580.66;;;21.37;100.00
46087;BME280;31824;49.648;8.640;2023-04-22T11:16:55;99569.38;;;21.67;100.00
46087;BME280;31824;49.648;8.640;2023-04-22T11:19:57;99574.81;;;22.19;100.00
46087;BME280;31824;49.648;8.640;2023-04-22T11:23:01;99566.41;;;22.08;100.00
46087;BME280;31824;49.648;8.640;2023-04-22T11:26:05;99569.31;;;22.14;100.00
46087;BME280;31824;49.648;8.640;2023-04-22T11:29:08;99561.78;;;22.04;100.00
46087;BME280;31824;49.648;8.640;2023-04-22T11:32:10;99567.28;;;22.58;100.00
46087;BME280;31824;49.648;8.640;2023-04-22T11:35:15;99566.88;;;22.46;100.00
46087;BME280;31824;49.648;8.640;2023-04-22T11:38:18;99567.16;;;22.30;100.00
46087;BME280;31824;49.648;8.640;2023-04-22T11:41:20;99573.38;;;22.54;100.00
46087;BME280;31824;49.648;8.640;2023-04-22T11:44:26;99559.00;;;22.51;100.00
46087;BME280;31824;49.648;8.640;2023-04-22T11:47:28;99564.56;;;22.57;100.00
46087;BME280;31824;49.648;8.640;2023-04-22T11:50:32;99568.13;;;22.32;100.00
46087;BME280;31824;49.648;8.640;2023-04-22T11:53:34;99558.09;;;22.50;100.00
46087;BME280;31824;49.648;8.640;2023-04-22T11:56:36;99559.25;;;22.58;100.00
46087;BME280;31824;49.648;8.640;2023-04-22T11:59:39;99554.19;;;22.95;100.00
46087;BME280;31824;49.648;8.640;2023-04-22T12:02:42;99551.16;;;23.12;100.00
46087;BME280;31824;49.648;8.640;2023-04-22T12:05:50;99549.91;;;23.58;100.00
46087;BME280;31824;49.648;8.640;2023-04-22T12:08:52;99557.69;;;23.79;100.00
46087;BME280;31824;49.648;8.640;2023-04-22T12:11:56;99544.63;;;23.59;100.00
46087;BME280;31824;49.648;8.640;2023-04-22T12:15:05;99553.13;;;24.07;100.00
46087;BME280;31824;49.648;8.640;2023-04-22T12:18:08;99541.59;;;24.11;100.00
46087;BME280;31824;49.648;8.640;2023-04-22T12:21:11;99540.66;;;24.09;100.00
46087;BME280;31824;49.648;8.640;2023-04-22T12:24:13;99541.16;;;23.06;100.00
46087;BME280;31824;49.648;8.640;2023-04-22T12:27:15;99539.38;;;23.06;100.00
46087;BME280;31824;49.648;8.640;2023-04-22T12:30:18;99541.84;;;23.27;100.00
46087;BME280;31824;49.648;8.640;2023-04-22T12:33:21;99536.97;;;24.39;100.00
46087;BME280;31824;49.648;8.640;2023-04-22T12:36:23;99550.19;;;23.98;100.00
46087;BME280;31824;49.648;8.640;2023-04-22T12:39:26;99541.94;;;23.31;100.00
46087;BME280;31824;49.648;8.640;2023-04-22T12:42:28;99534.25;;;22.58;100.00
46087;BME280;31824;49.648;8.640;2023-04-22T12:45:31;99535.06;;;22.30;100.00
46087;BME280;31824;49.648;8.640;2023-04-22T12:48:34;99536.69;;;22.26;100.00
46087;BME280;31824;49.648;8.640;2023-04-22T12:51:37;99553.66;;;22.01;100.00
46087;BME280;31824;49.648;8.640;2023-04-22T12:54:39;99543.56;;;22.18;100.00
46087;BME280;31824;49.648;8.640;2023-04-22T12:57:41;99556.97;;;21.94;100.00
46087;BME280;31824;49.648;8.640;2023-04-22T13:00:44;99551.44;;;21.89;100.00
46087;BME280;31824;49.648;8.640;2023-04-22T13:03:46;99551.28;;;21.84;100.00
46087;BME280;31824;49.648;8.640;2023-04-22T13:06:54;99556.41;;;21.78;100.00
46087;BME280;31824;49.648;8.640;2023-04-22T13:09:58;99562.09;;;21.63;100.00
46087;BME280;31824;49.648;8.640;2023-04-22T13:13:00;99546.56;;;21.53;100.00
46087;BME280;31824;49.648;8.640;2023-04-22T13:16:20;99557.41;;;21.35;100.00
46087;BME280;31824;49.648;8.640;2023-04-22T13:19:22;99545.75;;;21.10;100.00
46087;BME280;31824;49.648;8.640;2023-04-22T13:22:26;99550.31;;;20.90;100.00
46087;BME280;31824;49.648;8.640;2023-04-22T13:25:28;99555.34;;;20.82;100.00
46087;BME280;31824;49.648;8.640;2023-04-22T13:28:29;99556.06;;;20.78;100.00
46087;BME280;31824;49.648;8.640;2023-04-22T13:31:32;99558.47;;;20.72;100.00
46087;BME280;31824;49.648;8.640;2023-04-22T13:34:34;99555.25;;;20.60;100.00
46087;BME280;31824;49.648;8.640;2023-04-22T13:37:37;99548.81;;;20.54;100.00
46087;BME280;31824;49.648;8.640;2023-04-22T13:40:40;99545.75;;;20.45;100.00
46087;BME280;31824;49.648;8.640;2023-04-22T13:43:42;99547.78;;;20.30;100.00
46087;BME280;31824;49.648;8.640;2023-04-22T13:46:45;99554.00;;;20.30;100.00
46087;BME280;31824;49.648;8.640;2023-04-22T13:49:47;99549.41;;;20.26;100.00
46087;BME280;31824;49.648;8.640;2023-04-22T13:52:49;99553.38;;;20.15;100.00
46087;BME280;31824;49.648;8.640;2023-04-22T13:55:51;99555.31;;;20.19;100.00
46087;BME280;31824;49.648;8.640;2023-04-22T13:58:53;99551.94;;;20.23;100.00
46087;BME280;31824;49.648;8.640;2023-04-22T14:01:57;99554.06;;;20.11;100.00
46087;BME280;31824;49.648;8.640;2023-04-22T14:04:58;99548.16;;;20.18;100.00
46087;BME280;31824;49.648;8.640;2023-04-22T14:08:00;99553.84;;;20.26;100.00
46087;BME280;31824;49.648;8.640;2023-04-22T14:11:03;99550.72;;;20.36;100.00
46087;BME280;31824;49.648;8.640;2023-04-22T14:14:06;99556.13;;;20.37;100.00
46087;BME280;31824;49.648;8.640;2023-04-22T14:17:10;99572.84;;;20.33;100.00
46087;BME280;31824;49.648;8.640;2023-04-22T14:20:12;99573.63;;;20.11;100.00
46087;BME280;31824;49.648;8.640;2023-04-22T14:23:14;99572.44;;;20.04;100.00
46087;BME280;31824;49.648;8.640;2023-04-22T14:26:16;99572.38;;;20.03;100.00
46087;BME280;31824;49.648;8.640;2023-04-22T14:29:18;99572.31;;;20.01;100.00
46087;BME280;31824;49.648;8.640;2023-04-22T14:32:21;99569.66;;;20.01;100.00
46087;BME280;31824;49.648;8.640;2023-04-22T14:35:23;99563.13;;;19.95;100.00
46087;BME280;31824;49.648;8.640;2023-04-22T14:38:25;99566.09;;;20.01;100.00
46087;BME280;31824;49.648;8.640;2023-04-22T14:41:27;99564.97;;;19.76;100.00
46087;BME280;31824;49.648;8.640;2023-04-22T14:44:29;99554.59;;;19.63;100.00
46087;BME280;31824;49.648;8.640;2023-04-22T14:47:32;99560.75;;;19.81;100.00
46087;BME280;31824;49.648;8.640;2023-04-22T14:50:34;99560.47;;;19.95;100.00
46087;BME280;31824;49.648;8.640;2023-04-22T14:53:36;99566.38;;;19.68;100.00
46087;BME280;31824;49.648;8.640;2023-04-22T14:56:38;99555.22;;;19.57;100.00
46087;BME280;31824;49.648;8.640;2023-04-22T14:59:40;99567.75;;;19.60;100.00
46087;BME280;31824;49.648;8.640;2023-04-22T15:02:44;99564.53;;;19.67;100.00
46087;BME280;31824;49.648;8.640;2023-04-22T15:05:47;99560.69;;;19.60;100.00
46087;BME280;31824;49.648;8.640;2023-04-22T15:08:49;99560.75;;;19.62;100.00
46087;BME280;31824;49.648;8.640;2023-04-22T15:11:54;99564.44;;;19.46;100.00
46087;BME280;31824;49.648;8.640;2023-04-22T15:14:57;99560.66;;;19.40;100.00
46087;BME280;31824;49.648;8.640;2023-04-22T15:18:01;99554.22;;;19.55;100.00
46087;BME280;31824;49.648;8.640;2023-04-22T15:21:03;99542.16;;;19.63;100.00
46087;BME280;31824;49.648;8.640;2023-04-22T15:24:07;99551.69;;;19.58;100.00
46087;BME280;31824;49.648;8.640;2023-04-22T15:27:09;99557.31;;;19.64;100.00
46087;BME280;31824;49.648;8.640;2023-04-22T15:30:11;99555.75;;;19.50;100.00
46087;BME280;31824;49.648;8.640;2023-04-22T15:33:15;99564.66;;;19.70;100.00
46087;BME280;31824;49.648;8.640;2023-04-22T15:36:16;99561.16;;;19.71;100.00
46087;BME280;31824;49.648;8.640;2023-04-22T15:39:22;99565.44;;;19.67;100.00
46087;BME280;31824;49.648;8.640;2023-04-22T15:42:24;99560.34;;;19.72;100.00
46087;BME280;31824;49.648;8.640;2023-04-22T15:45:26;99553.16;;;19.51;100.00
46087;BME280;31824;49.648;8.640;2023-04-22T15:48:31;99551.06;;;19.44;100.00
46087;BME280;31824;49.648;8.640;2023-04-22T15:51:33;99546.69;;;19.27;100.00
46087;BME280;31824;49.648;8.640;2023-04-22T15:54:35;99543.06;;;19.44;100.00
46087;BME280;31824;49.648;8.640;2023-04-22T15:57:37;99540.34;;;19.43;100.00
46087;BME280;31824;49.648;8.640;2023-04-22T16:00:39;99548.53;;;19.47;100.00
46087;BME280;31824;49.648;8.640;2023-04-22T16:03:43;99539.06;;;19.54;100.00
46087;BME280;31824;49.648;8.640;2023-04-22T16:06:46;99547.44;;;19.81;100.00
46087;BME280;31824;49.648;8.640;2023-04-22T16:09:51;99553.16;;;19.51;100.00
46087;BME280;31824;49.648;8.640;2023-04-22T16:12:53;99543.34;;;19.89;100.00